Flight Track Log - Related Links

Times and Time Zones

All times are in EDT time to prevent confusion due to time zone crossing. See the EJA681 flight status page for this flight to view local times or setup timezone preferences in your user account.

Time Position Orientation Groundspeed Altitude Reporting Facility
EDT Latitude Longitude Course Direction KTS MPH feet Rate Location/Type
Fri 11:46:24 PM 40.7333 -74.1333 250° West 190 219 4,400  Level New York TRACON
Fri 11:48:06 PM 40.7142 -74.2672 259° West 244 281 10,300 3,242 Climbing New York Center
Fri 11:49:05 PM 40.6758 -74.3639 242° Southwest 280 322 13,100 3,076 Climbing New York Center
Fri 11:50:05 PM 40.6308 -74.4681 240° Southwest 325 374 16,400 2,370 Climbing New York Center
Fri 11:51:00 PM 40.5194 -74.6567 250° West  Level FlightAware Approximate
Fri 11:51:04 PM 40.5856 -74.5806 242° Southwest 346 398 17,800  Level New York Center
Fri 11:52:06 PM 40.5403 -74.6872 241° Southwest 361 415 18,000 98 Climbing New York Center
Fri 11:53:06 PM 40.4858 -74.8178 241° Southwest 367 422 18,000  Level New York Center
Fri 11:54:07 PM 40.4428 -74.9217 241° Southwest 367 422 18,000  Level New York Center
Fri 11:55:06 PM 40.3717 -75.0425 232° Southwest 379 436 18,000  Level New York Center
Fri 11:56:07 PM 40.2992 -75.1442 227° Southwest 385 443 18,000  Level New York Center
Fri 11:57:04 PM 40.2289 -75.2406 226° Southwest 385 443 18,000  Level New York Center
Fri 11:58:07 PM 40.1608 -75.3339 226° Southwest 385 443 18,000  Level New York Center
Fri 11:59:05 PM 40.0814 -75.4453 227° Southwest 385 443 18,000  Level New York Center
Sat 12:00:05 AM 40.0153 -75.5356 226° Southwest 385 443 18,000 -49 Level New York Center
Sat 12:01:07 AM 39.9378 -75.6442 227° Southwest 385 443 17,900 -393 Descending New York Center
Sat 12:02:07 AM 39.8861 -75.7353 234° Southwest 371 427 17,200 -1,399 Descending New York Center
Sat 12:04:20 AM 39.7500 -75.9833 235° Southwest 355 409 13,400 -1,538 Descending Potomac TRACON
Sat 12:05:26 AM 39.6833 -76.1000 233° Southwest 356 410 12,100 -1,333 Descending Potomac TRACON
Sat 12:06:08 AM 39.6500 -76.1667 237° Southwest 355 409 11,000 -1,167 Descending Potomac TRACON
Sat 12:07:14 AM 39.5667 -76.2500 218° Southwest 340 391 10,000 -500 Descending Potomac TRACON
Sat 12:08:08 AM 39.5000 -76.3167 218° Southwest 334 384 10,000 -789 Level Potomac TRACON
Sat 12:09:08 AM 39.4167 -76.3667 205° Southwest 289 333 8,500 -1,714 Descending Potomac TRACON
Sat 12:10:14 AM 39.3500 -76.4167 210° Southwest 269 310 6,400 -1,619 Descending Potomac TRACON
Sat 12:11:14 AM 39.2833 -76.4667 210° Southwest 233 268 5,100 -1,273 Descending Potomac TRACON
Sat 12:12:26 AM 39.2167 -76.5000 201° Southwest 245 282 3,600 -1,091 Descending Potomac TRACON
Sat 12:13:26 AM 39.1667 -76.5500 218° Southwest 204 235 2,700 -893 Descending Potomac TRACON
Sat 12:15:14 AM 39.1333 -76.6167 237° Southwest 135 155 1,100 -821 Descending Potomac TRACON
Sat 12:16:14 AM 39.1667 -76.6500 322° Northwest 124 143 400 -700 Descending Potomac TRACON
Sat 12:18:00 AM 39.1667 -76.6667 270° West  Level FlightAware Approximate
Sat 12:25:00 AM 39.1754 -76.6683 270° West  Level Estimated
Sat 12:26:00 AM 39.1754 -76.6683 270° West  Level Estimated
Sat 12:27:00 AM 39.1754 -76.6683 270° West  Level Estimated

Login

Don't have an account? Register now (free) for customized features, flight alerts, and more!